sensor_id;sensor_type;location;lat;lon;timestamp;temperature;humidity
12264;DHT22;6194;49.010;8.414;2023-06-14T00:00:39;16.10;90.70
12264;DHT22;6194;49.010;8.414;2023-06-14T00:03:06;16.00;90.60
12264;DHT22;6194;49.010;8.414;2023-06-14T00:05:34;15.90;90.80
12264;DHT22;6194;49.010;8.414;2023-06-14T00:08:04;16.00;91.20
12264;DHT22;6194;49.010;8.414;2023-06-14T00:10:32;15.80;91.20
12264;DHT22;6194;49.010;8.414;2023-06-14T00:13:01;15.80;90.90
12264;DHT22;6194;49.010;8.414;2023-06-14T00:15:26;15.70;90.90
12264;DHT22;6194;49.010;8.414;2023-06-14T00:17:52;15.80;90.60
12264;DHT22;6194;49.010;8.414;2023-06-14T00:20:17;15.90;90.40
12264;DHT22;6194;49.010;8.414;2023-06-14T00:22:43;15.90;90.30
12264;DHT22;6194;49.010;8.414;2023-06-14T00:25:10;16.00;89.50
12264;DHT22;6194;49.010;8.414;2023-06-14T00:27:36;16.20;88.50
12264;DHT22;6194;49.010;8.414;2023-06-14T00:30:01;16.30;87.90
12264;DHT22;6194;49.010;8.414;2023-06-14T00:32:27;16.40;87.50
12264;DHT22;6194;49.010;8.414;2023-06-14T00:34:53;16.50;87.20
12264;DHT22;6194;49.010;8.414;2023-06-14T00:37:18;16.50;87.20
12264;DHT22;6194;49.010;8.414;2023-06-14T00:39:44;16.40;87.40
12264;DHT22;6194;49.010;8.414;2023-06-14T00:42:10;16.40;87.00
12264;DHT22;6194;49.010;8.414;2023-06-14T00:44:35;16.50;86.90
12264;DHT22;6194;49.010;8.414;2023-06-14T00:47:01;16.60;87.10
12264;DHT22;6194;49.010;8.414;2023-06-14T00:49:28;16.50;86.90
12264;DHT22;6194;49.010;8.414;2023-06-14T00:51:54;16.40;87.30
12264;DHT22;6194;49.010;8.414;2023-06-14T00:54:20;16.50;87.00
12264;DHT22;6194;49.010;8.414;2023-06-14T00:56:46;16.60;87.20
12264;DHT22;6194;49.010;8.414;2023-06-14T00:59:12;16.50;87.00
12264;DHT22;6194;49.010;8.414;2023-06-14T01:01:37;16.50;87.10
12264;DHT22;6194;49.010;8.414;2023-06-14T01:04:04;16.40;87.30
12264;DHT22;6194;49.010;8.414;2023-06-14T01:15:02;16.30;87.70
12264;DHT22;6194;49.010;8.414;2023-06-14T01:17:29;16.30;87.70
12264;DHT22;6194;49.010;8.414;2023-06-14T01:19:59;16.30;87.60
12264;DHT22;6194;49.010;8.414;2023-06-14T01:22:26;16.30;87.90
12264;DHT22;6194;49.010;8.414;2023-06-14T01:24:53;16.40;87.50
12264;DHT22;6194;49.010;8.414;2023-06-14T01:27:23;16.40;87.80
12264;DHT22;6194;49.010;8.414;2023-06-14T01:29:51;16.60;87.80
12264;DHT22;6194;49.010;8.414;2023-06-14T01:32:17;16.40;87.40
12264;DHT22;6194;49.010;8.414;2023-06-14T01:34:43;16.40;87.50
12264;DHT22;6194;49.010;8.414;2023-06-14T01:37:11;16.40;87.60
12264;DHT22;6194;49.010;8.414;2023-06-14T01:39:37;16.30;87.40
12264;DHT22;6194;49.010;8.414;2023-06-14T01:42:03;16.40;87.50
12264;DHT22;6194;49.010;8.414;2023-06-14T01:44:30;16.40;87.40
12264;DHT22;6194;49.010;8.414;2023-06-14T01:46:57;16.30;87.30
12264;DHT22;6194;49.010;8.414;2023-06-14T01:49:22;16.60;87.90
12264;DHT22;6194;49.010;8.414;2023-06-14T01:51:48;16.30;87.80
12264;DHT22;6194;49.010;8.414;2023-06-14T01:54:14;16.20;87.90
12264;DHT22;6194;49.010;8.414;2023-06-14T01:56:39;16.10;88.00
12264;DHT22;6194;49.010;8.414;2023-06-14T01:59:05;16.10;88.10
12264;DHT22;6194;49.010;8.414;2023-06-14T02:01:30;16.00;88.50
12264;DHT22;6194;49.010;8.414;2023-06-14T02:03:56;15.90;88.90
12264;DHT22;6194;49.010;8.414;2023-06-14T02:06:22;15.80;89.00
12264;DHT22;6194;49.010;8.414;2023-06-14T02:08:48;15.80;89.30
12264;DHT22;6194;49.010;8.414;2023-06-14T02:11:14;15.80;89.30
12264;DHT22;6194;49.010;8.414;2023-06-14T02:13:40;15.70;89.40
12264;DHT22;6194;49.010;8.414;2023-06-14T02:16:06;15.80;89.50
12264;DHT22;6194;49.010;8.414;2023-06-14T02:18:32;15.90;89.60
12264;DHT22;6194;49.010;8.414;2023-06-14T02:20:57;15.80;89.50
12264;DHT22;6194;49.010;8.414;2023-06-14T02:23:23;15.70;89.60
12264;DHT22;6194;49.010;8.414;2023-06-14T02:25:49;15.70;89.30
12264;DHT22;6194;49.010;8.414;2023-06-14T02:28:14;15.70;89.70
12264;DHT22;6194;49.010;8.414;2023-06-14T02:30:40;15.60;89.80
12264;DHT22;6194;49.010;8.414;2023-06-14T02:33:06;15.50;90.00
12264;DHT22;6194;49.010;8.414;2023-06-14T02:35:31;15.50;90.20
12264;DHT22;6194;49.010;8.414;2023-06-14T02:37:57;15.30;90.40
12264;DHT22;6194;49.010;8.414;2023-06-14T02:40:23;15.20;90.80
12264;DHT22;6194;49.010;8.414;2023-06-14T02:42:48;15.00;91.20
12264;DHT22;6194;49.010;8.414;2023-06-14T02:45:14;15.00;91.40
12264;DHT22;6194;49.010;8.414;2023-06-14T02:47:40;14.80;91.60
12264;DHT22;6194;49.010;8.414;2023-06-14T02:50:06;14.80;92.00
12264;DHT22;6194;49.010;8.414;2023-06-14T02:52:32;14.60;92.20
12264;DHT22;6194;49.010;8.414;2023-06-14T02:54:58;14.50;92.40
12264;DHT22;6194;49.010;8.414;2023-06-14T02:57:24;14.30;92.60
12264;DHT22;6194;49.010;8.414;2023-06-14T02:59:50;14.10;93.00
12264;DHT22;6194;49.010;8.414;2023-06-14T03:02:15;14.10;93.70
12264;DHT22;6194;49.010;8.414;2023-06-14T03:04:41;14.00;93.80
12264;DHT22;6194;49.010;8.414;2023-06-14T03:07:09;14.00;94.00
12264;DHT22;6194;49.010;8.414;2023-06-14T03:09:36;14.00;93.90
12264;DHT22;6194;49.010;8.414;2023-06-14T03:12:05;14.00;93.70
12264;DHT22;6194;49.010;8.414;2023-06-14T03:14:35;14.10;93.50
12264;DHT22;6194;49.010;8.414;2023-06-14T03:17:02;14.10;93.50
12264;DHT22;6194;49.010;8.414;2023-06-14T03:19:27;14.20;93.70
12264;DHT22;6194;49.010;8.414;2023-06-14T03:21:53;14.10;93.70
12264;DHT22;6194;49.010;8.414;2023-06-14T03:24:22;14.00;94.00
12264;DHT22;6194;49.010;8.414;2023-06-14T03:26:48;14.20;94.20
12264;DHT22;6194;49.010;8.414;2023-06-14T03:29:13;14.00;94.10
12264;DHT22;6194;49.010;8.414;2023-06-14T03:31:56;13.90;94.30
12264;DHT22;6194;49.010;8.414;2023-06-14T03:34:22;13.90;94.30
12264;DHT22;6194;49.010;8.414;2023-06-14T03:36:48;14.00;94.30
12264;DHT22;6194;49.010;8.414;2023-06-14T03:39:13;14.00;94.50
12264;DHT22;6194;49.010;8.414;2023-06-14T03:41:39;14.00;94.70
12264;DHT22;6194;49.010;8.414;2023-06-14T03:44:04;14.00;94.70
12264;DHT22;6194;49.010;8.414;2023-06-14T03:46:30;14.10;94.50
12264;DHT22;6194;49.010;8.414;2023-06-14T03:48:55;14.30;94.50
12264;DHT22;6194;49.010;8.414;2023-06-14T03:51:21;14.40;94.30
12264;DHT22;6194;49.010;8.414;2023-06-14T03:53:47;14.50;94.30
12264;DHT22;6194;49.010;8.414;2023-06-14T03:56:13;14.50;94.40
12264;DHT22;6194;49.010;8.414;2023-06-14T03:58:39;14.60;94.40
12264;DHT22;6194;49.010;8.414;2023-06-14T04:01:04;14.80;94.10
12264;DHT22;6194;49.010;8.414;2023-06-14T04:03:32;15.30;93.90
12264;DHT22;6194;49.010;8.414;2023-06-14T04:05:58;15.30;93.50
12264;DHT22;6194;49.010;8.414;2023-06-14T04:08:25;15.60;93.30
12264;DHT22;6194;49.010;8.414;2023-06-14T04:10:51;15.80;92.90
12264;DHT22;6194;49.010;8.414;2023-06-14T04:13:16;16.00;92.60
12264;DHT22;6194;49.010;8.414;2023-06-14T04:15:42;16.20;92.40
12264;DHT22;6194;49.010;8.414;2023-06-14T04:18:09;16.50;92.10
12264;DHT22;6194;49.010;8.414;2023-06-14T04:20:34;16.70;91.90
12264;DHT22;6194;49.010;8.414;2023-06-14T04:23:12;16.90;91.60
12264;DHT22;6194;49.010;8.414;2023-06-14T04:25:38;17.10;91.40
12264;DHT22;6194;49.010;8.414;2023-06-14T04:28:04;17.40;91.00
12264;DHT22;6194;49.010;8.414;2023-06-14T04:30:29;17.80;90.80
12264;DHT22;6194;49.010;8.414;2023-06-14T04:32:56;17.90;90.50
12264;DHT22;6194;49.010;8.414;2023-06-14T04:35:22;18.10;90.30
12264;DHT22;6194;49.010;8.414;2023-06-14T04:37:52;18.10;90.30
12264;DHT22;6194;49.010;8.414;2023-06-14T04:40:18;18.20;90.10
12264;DHT22;6194;49.010;8.414;2023-06-14T04:42:44;18.30;90.00
12264;DHT22;6194;49.010;8.414;2023-06-14T04:45:11;18.60;89.20
12264;DHT22;6194;49.010;8.414;2023-06-14T04:47:38;18.80;89.20
12264;DHT22;6194;49.010;8.414;2023-06-14T04:50:04;18.80;89.40
12264;DHT22;6194;49.010;8.414;2023-06-14T04:52:30;18.90;89.40
12264;DHT22;6194;49.010;8.414;2023-06-14T04:54:57;19.20;88.80
12264;DHT22;6194;49.010;8.414;2023-06-14T04:57:23;19.40;88.10
12264;DHT22;6194;49.010;8.414;2023-06-14T04:59:50;19.70;87.00
12264;DHT22;6194;49.010;8.414;2023-06-14T05:02:23;20.00;86.60
12264;DHT22;6194;49.010;8.414;2023-06-14T05:04:50;20.20;86.70
12264;DHT22;6194;49.010;8.414;2023-06-14T05:07:16;20.20;85.40
12264;DHT22;6194;49.010;8.414;2023-06-14T05:09:42;20.00;85.60
12264;DHT22;6194;49.010;8.414;2023-06-14T05:12:07;20.10;86.50
12264;DHT22;6194;49.010;8.414;2023-06-14T05:14:34;20.70;85.60
12264;DHT22;6194;49.010;8.414;2023-06-14T05:17:00;20.90;85.70
12264;DHT22;6194;49.010;8.414;2023-06-14T05:19:25;21.30;84.60
12264;DHT22;6194;49.010;8.414;2023-06-14T05:21:51;21.50;84.60
12264;DHT22;6194;49.010;8.414;2023-06-14T05:24:18;21.90;83.80
12264;DHT22;6194;49.010;8.414;2023-06-14T05:26:44;21.70;83.70
12264;DHT22;6194;49.010;8.414;2023-06-14T05:29:09;21.80;83.90
12264;DHT22;6194;49.010;8.414;2023-06-14T05:31:35;21.90;83.60
12264;DHT22;6194;49.010;8.414;2023-06-14T05:34:01;21.80;83.80
12264;DHT22;6194;49.010;8.414;2023-06-14T05:36:26;21.90;83.00
12264;DHT22;6194;49.010;8.414;2023-06-14T05:38:53;21.90;83.00
12264;DHT22;6194;49.010;8.414;2023-06-14T05:41:28;22.00;83.00
12264;DHT22;6194;49.010;8.414;2023-06-14T05:43:55;22.10;81.10
12264;DHT22;6194;49.010;8.414;2023-06-14T05:46:22;21.90;81.90
12264;DHT22;6194;49.010;8.414;2023-06-14T05:48:50;22.10;81.90
12264;DHT22;6194;49.010;8.414;2023-06-14T05:51:16;21.80;81.60
12264;DHT22;6194;49.010;8.414;2023-06-14T05:53:47;22.30;81.80
12264;DHT22;6194;49.010;8.414;2023-06-14T05:56:14;22.90;80.20
12264;DHT22;6194;49.010;8.414;2023-06-14T05:58:40;23.10;79.50
12264;DHT22;6194;49.010;8.414;2023-06-14T06:01:05;23.50;79.10
12264;DHT22;6194;49.010;8.414;2023-06-14T06:03:31;23.40;78.10
12264;DHT22;6194;49.010;8.414;2023-06-14T06:05:58;23.40;78.20
12264;DHT22;6194;49.010;8.414;2023-06-14T06:08:23;23.30;78.30
12264;DHT22;6194;49.010;8.414;2023-06-14T06:10:49;23.10;78.20
12264;DHT22;6194;49.010;8.414;2023-06-14T06:13:15;22.60;79.10
12264;DHT22;6194;49.010;8.414;2023-06-14T06:15:41;22.50;80.00
12264;DHT22;6194;49.010;8.414;2023-06-14T06:18:06;22.70;80.20
12264;DHT22;6194;49.010;8.414;2023-06-14T06:20:32;22.70;79.80
12264;DHT22;6194;49.010;8.414;2023-06-14T06:22:58;22.50;80.70
12264;DHT22;6194;49.010;8.414;2023-06-14T06:25:25;22.40;80.50
12264;DHT22;6194;49.010;8.414;2023-06-14T06:27:52;22.30;80.70
12264;DHT22;6194;49.010;8.414;2023-06-14T06:30:19;22.10;80.30
12264;DHT22;6194;49.010;8.414;2023-06-14T06:32:45;22.20;80.40
12264;DHT22;6194;49.010;8.414;2023-06-14T06:35:11;22.00;81.00
12264;DHT22;6194;49.010;8.414;2023-06-14T06:37:38;22.00;81.30
12264;DHT22;6194;49.010;8.414;2023-06-14T06:40:04;22.30;80.80
12264;DHT22;6194;49.010;8.414;2023-06-14T06:42:32;22.40;79.80
12264;DHT22;6194;49.010;8.414;2023-06-14T06:44:58;22.60;79.70
12264;DHT22;6194;49.010;8.414;2023-06-14T06:47:23;22.70;79.70
12264;DHT22;6194;49.010;8.414;2023-06-14T06:49:50;23.00;79.80
12264;DHT22;6194;49.010;8.414;2023-06-14T06:52:16;23.20;79.30
12264;DHT22;6194;49.010;8.414;2023-06-14T06:54:41;23.20;79.40
12264;DHT22;6194;49.010;8.414;2023-06-14T06:57:07;23.60;78.40
12264;DHT22;6194;49.010;8.414;2023-06-14T06:59:33;24.30;78.20
12264;DHT22;6194;49.010;8.414;2023-06-14T07:01:58;24.50;77.10
12264;DHT22;6194;49.010;8.414;2023-06-14T07:04:24;24.70;76.40
12264;DHT22;6194;49.010;8.414;2023-06-14T07:06:50;24.50;76.60
12264;DHT22;6194;49.010;8.414;2023-06-14T07:09:16;24.60;76.50
12264;DHT22;6194;49.010;8.414;2023-06-14T07:11:43;24.70;76.70
12264;DHT22;6194;49.010;8.414;2023-06-14T07:14:09;24.10;77.10
12264;DHT22;6194;49.010;8.414;2023-06-14T07:16:34;24.10;77.60
12264;DHT22;6194;49.010;8.414;2023-06-14T07:19:04;23.90;78.20
12264;DHT22;6194;49.010;8.414;2023-06-14T07:21:30;24.20;77.80
12264;DHT22;6194;49.010;8.414;2023-06-14T07:23:56;24.30;77.10
12264;DHT22;6194;49.010;8.414;2023-06-14T07:26:22;24.30;77.10
12264;DHT22;6194;49.010;8.414;2023-06-14T07:28:48;23.60;77.60
12264;DHT22;6194;49.010;8.414;2023-06-14T07:31:14;23.30;78.70
12264;DHT22;6194;49.010;8.414;2023-06-14T07:33:43;23.00;79.10
12264;DHT22;6194;49.010;8.414;2023-06-14T07:36:09;22.90;78.20
12264;DHT22;6194;49.010;8.414;2023-06-14T07:38:35;24.10;77.40
12264;DHT22;6194;49.010;8.414;2023-06-14T07:41:02;24.30;77.10
12264;DHT22;6194;49.010;8.414;2023-06-14T07:43:28;24.40;77.80
12264;DHT22;6194;49.010;8.414;2023-06-14T07:45:53;24.70;77.30
12264;DHT22;6194;49.010;8.414;2023-06-14T07:48:19;24.70;76.80
12264;DHT22;6194;49.010;8.414;2023-06-14T07:50:47;25.50;76.20
12264;DHT22;6194;49.010;8.414;2023-06-14T07:53:12;25.70;75.30
12264;DHT22;6194;49.010;8.414;2023-06-14T07:55:38;26.50;74.80
12264;DHT22;6194;49.010;8.414;2023-06-14T07:58:07;26.70;73.50
12264;DHT22;6194;49.010;8.414;2023-06-14T08:00:33;26.60;73.50
12264;DHT22;6194;49.010;8.414;2023-06-14T08:02:58;27.00;72.30
12264;DHT22;6194;49.010;8.414;2023-06-14T08:05:25;27.60;70.80
12264;DHT22;6194;49.010;8.414;2023-06-14T08:07:51;28.30;69.70
12264;DHT22;6194;49.010;8.414;2023-06-14T08:10:17;27.80;70.20
12264;DHT22;6194;49.010;8.414;2023-06-14T08:12:43;27.10;71.10
12264;DHT22;6194;49.010;8.414;2023-06-14T08:15:09;26.70;71.20
12264;DHT22;6194;49.010;8.414;2023-06-14T08:17:34;27.10;70.80
12264;DHT22;6194;49.010;8.414;2023-06-14T08:20:00;27.90;69.40
12264;DHT22;6194;49.010;8.414;2023-06-14T08:22:26;27.70;69.20
12264;DHT22;6194;49.010;8.414;2023-06-14T08:24:53;27.50;69.70
12264;DHT22;6194;49.010;8.414;2023-06-14T08:27:20;27.20;69.80
12264;DHT22;6194;49.010;8.414;2023-06-14T08:29:45;27.30;69.40
12264;DHT22;6194;49.010;8.414;2023-06-14T08:32:12;27.20;68.80
12264;DHT22;6194;49.010;8.414;2023-06-14T08:34:37;26.70;70.00
12264;DHT22;6194;49.010;8.414;2023-06-14T08:37:03;26.60;69.50
12264;DHT22;6194;49.010;8.414;2023-06-14T08:39:29;26.50;69.30
12264;DHT22;6194;49.010;8.414;2023-06-14T08:41:56;26.30;70.40
12264;DHT22;6194;49.010;8.414;2023-06-14T08:44:22;26.00;70.60
12264;DHT22;6194;49.010;8.414;2023-06-14T08:46:49;25.70;71.10
12264;DHT22;6194;49.010;8.414;2023-06-14T08:49:16;25.30;72.50
12264;DHT22;6194;49.010;8.414;2023-06-14T08:51:43;25.40;72.50
12264;DHT22;6194;49.010;8.414;2023-06-14T08:54:11;25.00;73.60
12264;DHT22;6194;49.010;8.414;2023-06-14T08:56:38;25.00;72.80
12264;DHT22;6194;49.010;8.414;2023-06-14T08:59:04;25.30;72.60
12264;DHT22;6194;49.010;8.414;2023-06-14T09:01:36;25.20;72.00
12264;DHT22;6194;49.010;8.414;2023-06-14T09:04:02;24.90;72.50
12264;DHT22;6194;49.010;8.414;2023-06-14T09:06:28;24.90;72.70
12264;DHT22;6194;49.010;8.414;2023-06-14T09:08:55;24.70;71.50
12264;DHT22;6194;49.010;8.414;2023-06-14T09:11:24;24.60;72.60
12264;DHT22;6194;49.010;8.414;2023-06-14T09:13:51;24.70;73.00
12264;DHT22;6194;49.010;8.414;2023-06-14T09:16:17;24.50;72.60
12264;DHT22;6194;49.010;8.414;2023-06-14T09:18:44;24.40;74.20
12264;DHT22;6194;49.010;8.414;2023-06-14T09:21:13;24.80;73.00
12264;DHT22;6194;49.010;8.414;2023-06-14T09:23:41;24.80;73.00
12264;DHT22;6194;49.010;8.414;2023-06-14T09:26:11;24.70;72.80
12264;DHT22;6194;49.010;8.414;2023-06-14T09:28:48;24.70;72.70
12264;DHT22;6194;49.010;8.414;2023-06-14T09:31:15;25.10;72.50
12264;DHT22;6194;49.010;8.414;2023-06-14T09:33:48;25.30;71.50
12264;DHT22;6194;49.010;8.414;2023-06-14T09:36:22;25.30;70.50
12264;DHT22;6194;49.010;8.414;2023-06-14T09:41:40;25.30;69.90
12264;DHT22;6194;49.010;8.414;2023-06-14T09:44:07;25.30;70.50
12264;DHT22;6194;49.010;8.414;2023-06-14T09:46:34;25.00;71.20
12264;DHT22;6194;49.010;8.414;2023-06-14T09:49:00;25.30;71.20
12264;DHT22;6194;49.010;8.414;2023-06-14T09:51:27;25.00;72.20
12264;DHT22;6194;49.010;8.414;2023-06-14T09:54:00;24.90;72.60
12264;DHT22;6194;49.010;8.414;2023-06-14T09:56:32;24.90;72.60
12264;DHT22;6194;49.010;8.414;2023-06-14T09:58:59;25.10;72.30
12264;DHT22;6194;49.010;8.414;2023-06-14T10:01:26;25.20;71.60
12264;DHT22;6194;49.010;8.414;2023-06-14T10:03:57;25.00;71.30
12264;DHT22;6194;49.010;8.414;2023-06-14T10:06:26;24.90;71.40
12264;DHT22;6194;49.010;8.414;2023-06-14T10:08:57;25.10;71.50
12264;DHT22;6194;49.010;8.414;2023-06-14T10:11:25;25.20;71.70
12264;DHT22;6194;49.010;8.414;2023-06-14T10:13:51;25.00;71.90
12264;DHT22;6194;49.010;8.414;2023-06-14T10:16:24;25.20;70.80
12264;DHT22;6194;49.010;8.414;2023-06-14T10:21:36;24.90;68.60
12264;DHT22;6194;49.010;8.414;2023-06-14T10:24:07;24.90;69.20
12264;DHT22;6194;49.010;8.414;2023-06-14T10:26:33;24.80;70.80
12264;DHT22;6194;49.010;8.414;2023-06-14T10:29:08;24.80;69.80
12264;DHT22;6194;49.010;8.414;2023-06-14T10:31:48;24.90;67.20
12264;DHT22;6194;49.010;8.414;2023-06-14T10:34:27;24.90;68.60
12264;DHT22;6194;49.010;8.414;2023-06-14T10:37:07;24.90;68.60
12264;DHT22;6194;49.010;8.414;2023-06-14T10:39:53;25.00;69.10
12264;DHT22;6194;49.010;8.414;2023-06-14T10:42:19;25.10;68.80
12264;DHT22;6194;49.010;8.414;2023-06-14T10:44:54;25.10;68.70
12264;DHT22;6194;49.010;8.414;2023-06-14T10:52:28;25.20;67.10
12264;DHT22;6194;49.010;8.414;2023-06-14T11:00:06;25.50;66.80
12264;DHT22;6194;49.010;8.414;2023-06-14T11:03:10;25.80;66.40
12264;DHT22;6194;49.010;8.414;2023-06-14T11:05:49;25.90;65.60
12264;DHT22;6194;49.010;8.414;2023-06-14T11:11:00;25.80;66.40
12264;DHT22;6194;49.010;8.414;2023-06-14T11:13:26;26.20;65.60
12264;DHT22;6194;49.010;8.414;2023-06-14T11:15:52;26.40;65.80
12264;DHT22;6194;49.010;8.414;2023-06-14T11:18:23;26.30;65.80
12264;DHT22;6194;49.010;8.414;2023-06-14T11:20:53;26.60;65.70
12264;DHT22;6194;49.010;8.414;2023-06-14T11:23:19;27.00;64.90
12264;DHT22;6194;49.010;8.414;2023-06-14T11:25:52;27.50;64.60
12264;DHT22;6194;49.010;8.414;2023-06-14T11:28:18;27.80;63.40
12264;DHT22;6194;49.010;8.414;2023-06-14T11:30:48;27.50;64.10
12264;DHT22;6194;49.010;8.414;2023-06-14T11:33:18;27.00;65.10
12264;DHT22;6194;49.010;8.414;2023-06-14T11:35:46;27.00;65.60
12264;DHT22;6194;49.010;8.414;2023-06-14T11:38:12;26.70;66.20
12264;DHT22;6194;49.010;8.414;2023-06-14T11:40:38;26.40;66.50
12264;DHT22;6194;49.010;8.414;2023-06-14T11:43:04;26.30;67.10
12264;DHT22;6194;49.010;8.414;2023-06-14T11:45:30;26.10;67.00
12264;DHT22;6194;49.010;8.414;2023-06-14T11:47:58;26.00;68.10
12264;DHT22;6194;49.010;8.414;2023-06-14T11:50:24;26.30;67.50
12264;DHT22;6194;49.010;8.414;2023-06-14T11:52:57;26.60;66.60
12264;DHT22;6194;49.010;8.414;2023-06-14T11:55:23;27.10;64.90
12264;DHT22;6194;49.010;8.414;2023-06-14T11:57:49;27.30;64.50
12264;DHT22;6194;49.010;8.414;2023-06-14T12:00:15;27.30;63.60
12264;DHT22;6194;49.010;8.414;2023-06-14T12:02:42;26.80;65.70
12264;DHT22;6194;49.010;8.414;2023-06-14T12:05:08;26.60;66.70
12264;DHT22;6194;49.010;8.414;2023-06-14T12:07:39;26.70;66.30
12264;DHT22;6194;49.010;8.414;2023-06-14T12:10:07;26.90;65.50
12264;DHT22;6194;49.010;8.414;2023-06-14T12:12:38;26.90;65.60
12264;DHT22;6194;49.010;8.414;2023-06-14T12:15:06;26.80;66.40
12264;DHT22;6194;49.010;8.414;2023-06-14T12:17:34;27.00;65.90
12264;DHT22;6194;49.010;8.414;2023-06-14T12:20:06;26.70;66.50
12264;DHT22;6194;49.010;8.414;2023-06-14T12:22:57;26.60;66.40
12264;DHT22;6194;49.010;8.414;2023-06-14T12:25:34;26.70;65.80
12264;DHT22;6194;49.010;8.414;2023-06-14T12:28:08;26.80;66.40
12264;DHT22;6194;49.010;8.414;2023-06-14T12:30:37;26.70;65.50
12264;DHT22;6194;49.010;8.414;2023-06-14T12:33:03;26.50;65.40
12264;DHT22;6194;49.010;8.414;2023-06-14T12:35:29;26.50;65.90
12264;DHT22;6194;49.010;8.414;2023-06-14T12:37:54;26.70;66.70
12264;DHT22;6194;49.010;8.414;2023-06-14T12:40:21;27.00;66.30
12264;DHT22;6194;49.010;8.414;2023-06-14T12:42:47;26.70;66.60
12264;DHT22;6194;49.010;8.414;2023-06-14T12:45:13;26.20;67.60
12264;DHT22;6194;49.010;8.414;2023-06-14T12:47:39;25.70;67.00
12264;DHT22;6194;49.010;8.414;2023-06-14T12:50:06;25.60;67.50
12264;DHT22;6194;49.010;8.414;2023-06-14T12:52:32;25.60;68.40
12264;DHT22;6194;49.010;8.414;2023-06-14T12:55:04;25.70;67.80
12264;DHT22;6194;49.010;8.414;2023-06-14T12:57:29;25.60;68.00
12264;DHT22;6194;49.010;8.414;2023-06-14T12:59:55;25.80;67.20
12264;DHT22;6194;49.010;8.414;2023-06-14T13:02:24;26.10;66.20
12264;DHT22;6194;49.010;8.414;2023-06-14T13:04:50;26.20;66.50
12264;DHT22;6194;49.010;8.414;2023-06-14T13:07:15;26.30;66.50
12264;DHT22;6194;49.010;8.414;2023-06-14T13:09:42;26.40;66.40
12264;DHT22;6194;49.010;8.414;2023-06-14T13:12:11;26.50;67.10
12264;DHT22;6194;49.010;8.414;2023-06-14T13:14:38;27.00;65.40
12264;DHT22;6194;49.010;8.414;2023-06-14T13:17:04;27.20;64.00
12264;DHT22;6194;49.010;8.414;2023-06-14T13:19:31;26.90;64.30
12264;DHT22;6194;49.010;8.414;2023-06-14T13:21:56;26.80;64.30
12264;DHT22;6194;49.010;8.414;2023-06-14T13:24:22;26.70;64.00
12264;DHT22;6194;49.010;8.414;2023-06-14T13:26:48;26.70;63.90
12264;DHT22;6194;49.010;8.414;2023-06-14T13:29:14;26.50;64.70
12264;DHT22;6194;49.010;8.414;2023-06-14T13:31:39;26.40;64.10
12264;DHT22;6194;49.010;8.414;2023-06-14T13:34:05;26.00;65.70
12264;DHT22;6194;49.010;8.414;2023-06-14T13:36:31;25.70;66.40
12264;DHT22;6194;49.010;8.414;2023-06-14T13:38:57;25.60;67.00
12264;DHT22;6194;49.010;8.414;2023-06-14T13:41:25;25.70;66.70
12264;DHT22;6194;49.010;8.414;2023-06-14T13:43:57;25.50;65.90
12264;DHT22;6194;49.010;8.414;2023-06-14T13:46:22;25.50;66.10
12264;DHT22;6194;49.010;8.414;2023-06-14T13:48:48;25.50;66.40
12264;DHT22;6194;49.010;8.414;2023-06-14T13:51:13;25.70;65.30
12264;DHT22;6194;49.010;8.414;2023-06-14T13:53:39;25.90;64.80
12264;DHT22;6194;49.010;8.414;2023-06-14T13:56:05;25.50;64.80
12264;DHT22;6194;49.010;8.414;2023-06-14T13:58:30;25.40;64.00
12264;DHT22;6194;49.010;8.414;2023-06-14T14:00:56;25.40;63.40
12264;DHT22;6194;49.010;8.414;2023-06-14T14:03:22;25.30;63.80
12264;DHT22;6194;49.010;8.414;2023-06-14T14:05:47;25.70;63.20
12264;DHT22;6194;49.010;8.414;2023-06-14T14:08:13;26.00;62.20
12264;DHT22;6194;49.010;8.414;2023-06-14T14:10:38;26.50;63.10
12264;DHT22;6194;49.010;8.414;2023-06-14T14:13:04;26.60;63.10
12264;DHT22;6194;49.010;8.414;2023-06-14T14:15:30;26.40;63.30
12264;DHT22;6194;49.010;8.414;2023-06-14T14:17:55;26.00;64.20
12264;DHT22;6194;49.010;8.414;2023-06-14T14:20:23;25.80;64.50
12264;DHT22;6194;49.010;8.414;2023-06-14T14:22:48;25.60;64.40
12264;DHT22;6194;49.010;8.414;2023-06-14T14:25:14;25.40;64.80
12264;DHT22;6194;49.010;8.414;2023-06-14T14:27:39;25.40;64.20
12264;DHT22;6194;49.010;8.414;2023-06-14T14:30:05;25.40;64.30
12264;DHT22;6194;49.010;8.414;2023-06-14T14:32:31;25.40;64.10
12264;DHT22;6194;49.010;8.414;2023-06-14T14:34:57;25.40;63.20
12264;DHT22;6194;49.010;8.414;2023-06-14T14:37:22;25.60;63.50
12264;DHT22;6194;49.010;8.414;2023-06-14T14:39:48;25.90;62.70
12264;DHT22;6194;49.010;8.414;2023-06-14T14:42:13;25.70;62.90
12264;DHT22;6194;49.010;8.414;2023-06-14T14:44:39;25.60;62.80
12264;DHT22;6194;49.010;8.414;2023-06-14T14:47:05;25.70;62.50
12264;DHT22;6194;49.010;8.414;2023-06-14T14:49:31;25.80;62.50
12264;DHT22;6194;49.010;8.414;2023-06-14T14:51:57;26.10;61.70
12264;DHT22;6194;49.010;8.414;2023-06-14T14:54:23;26.20;61.50
12264;DHT22;6194;49.010;8.414;2023-06-14T14:56:50;26.20;61.60
12264;DHT22;6194;49.010;8.414;2023-06-14T14:59:16;26.00;61.30
12264;DHT22;6194;49.010;8.414;2023-06-14T15:01:41;26.10;61.60
12264;DHT22;6194;49.010;8.414;2023-06-14T15:04:07;25.80;61.70
12264;DHT22;6194;49.010;8.414;2023-06-14T15:06:32;25.70;62.00
12264;DHT22;6194;49.010;8.414;2023-06-14T15:09:01;25.80;62.50
12264;DHT22;6194;49.010;8.414;2023-06-14T15:11:26;25.70;63.10
12264;DHT22;6194;49.010;8.414;2023-06-14T15:13:52;25.70;63.50
12264;DHT22;6194;49.010;8.414;2023-06-14T15:16:18;25.70;63.20
12264;DHT22;6194;49.010;8.414;2023-06-14T15:18:43;25.70;63.90
12264;DHT22;6194;49.010;8.414;2023-06-14T15:21:09;25.70;62.60
12264;DHT22;6194;49.010;8.414;2023-06-14T15:23:35;25.80;63.20
12264;DHT22;6194;49.010;8.414;2023-06-14T15:26:00;25.80;62.60
12264;DHT22;6194;49.010;8.414;2023-06-14T15:28:26;25.60;62.40
12264;DHT22;6194;49.010;8.414;2023-06-14T15:30:55;25.60;62.50
12264;DHT22;6194;49.010;8.414;2023-06-14T15:33:20;25.70;62.70
12264;DHT22;6194;49.010;8.414;2023-06-14T15:35:46;25.80;62.20
12264;DHT22;6194;49.010;8.414;2023-06-14T15:38:12;25.80;62.10
12264;DHT22;6194;49.010;8.414;2023-06-14T15:40:37;26.00;62.60
12264;DHT22;6194;49.010;8.414;2023-06-14T15:43:03;25.90;63.30
12264;DHT22;6194;49.010;8.414;2023-06-14T15:45:30;25.70;64.20
12264;DHT22;6194;49.010;8.414;2023-06-14T15:47:57;25.60;64.10
12264;DHT22;6194;49.010;8.414;2023-06-14T15:50:23;25.40;63.90
12264;DHT22;6194;49.010;8.414;2023-06-14T15:52:48;25.20;64.10
12264;DHT22;6194;49.010;8.414;2023-06-14T15:55:14;25.30;64.20
12264;DHT22;6194;49.010;8.414;2023-06-14T15:57:39;25.80;62.60
12264;DHT22;6194;49.010;8.414;2023-06-14T16:00:05;26.30;62.20
12264;DHT22;6194;49.010;8.414;2023-06-14T16:02:31;27.20;60.60
12264;DHT22;6194;49.010;8.414;2023-06-14T16:04:57;28.00;59.40
12264;DHT22;6194;49.010;8.414;2023-06-14T16:07:23;28.90;58.80
12264;DHT22;6194;49.010;8.414;2023-06-14T16:09:48;29.30;57.60